sensor_id;sensor_type;location;lat;lon;timestamp;temperature;humidity
5128;DHT22;2582;48.770;9.190;2024-03-22T00:02:21;11.10;99.90
5128;DHT22;2582;48.770;9.190;2024-03-22T00:04:47;11.10;99.90
5128;DHT22;2582;48.770;9.190;2024-03-22T00:07:12;11.10;99.90
5128;DHT22;2582;48.770;9.190;2024-03-22T00:09:38;11.30;99.90
5128;DHT22;2582;48.770;9.190;2024-03-22T00:12:04;11.30;99.90
5128;DHT22;2582;48.770;9.190;2024-03-22T00:14:29;11.20;99.90
5128;DHT22;2582;48.770;9.190;2024-03-22T00:16:55;11.30;99.90
5128;DHT22;2582;48.770;9.190;2024-03-22T00:19:20;11.20;99.90
5128;DHT22;2582;48.770;9.190;2024-03-22T00:21:46;11.20;99.90
5128;DHT22;2582;48.770;9.190;2024-03-22T00:24:12;11.10;99.90
5128;DHT22;2582;48.770;9.190;2024-03-22T00:26:37;11.10;99.90
5128;DHT22;2582;48.770;9.190;2024-03-22T00:29:03;11.00;99.90
5128;DHT22;2582;48.770;9.190;2024-03-22T00:31:28;11.00;99.90
5128;DHT22;2582;48.770;9.190;2024-03-22T00:33:54;10.90;99.90
5128;DHT22;2582;48.770;9.190;2024-03-22T00:36:19;10.90;99.90
5128;DHT22;2582;48.770;9.190;2024-03-22T00:38:46;11.00;99.90
5128;DHT22;2582;48.770;9.190;2024-03-22T00:41:12;11.00;99.90
5128;DHT22;2582;48.770;9.190;2024-03-22T00:43:37;10.90;99.90
5128;DHT22;2582;48.770;9.190;2024-03-22T00:46:03;10.90;99.90
5128;DHT22;2582;48.770;9.190;2024-03-22T00:48:29;10.80;99.90
5128;DHT22;2582;48.770;9.190;2024-03-22T00:50:55;10.80;99.90
5128;DHT22;2582;48.770;9.190;2024-03-22T00:53:20;10.70;99.90
5128;DHT22;2582;48.770;9.190;2024-03-22T00:55:46;10.60;99.90
5128;DHT22;2582;48.770;9.190;2024-03-22T00:58:19;10.60;99.90
5128;DHT22;2582;48.770;9.190;2024-03-22T01:00:44;10.50;99.90
5128;DHT22;2582;48.770;9.190;2024-03-22T01:03:10;10.50;99.90
5128;DHT22;2582;48.770;9.190;2024-03-22T01:05:36;10.50;99.90
5128;DHT22;2582;48.770;9.190;2024-03-22T01:08:01;10.50;99.90
5128;DHT22;2582;48.770;9.190;2024-03-22T01:10:27;10.50;99.90
5128;DHT22;2582;48.770;9.190;2024-03-22T01:12:53;10.60;99.90
5128;DHT22;2582;48.770;9.190;2024-03-22T01:15:18;10.60;99.90
5128;DHT22;2582;48.770;9.190;2024-03-22T01:17:44;10.50;99.90
5128;DHT22;2582;48.770;9.190;2024-03-22T01:20:10;10.50;99.90
5128;DHT22;2582;48.770;9.190;2024-03-22T01:22:35;10.50;99.90
5128;DHT22;2582;48.770;9.190;2024-03-22T01:25:02;10.50;99.90
5128;DHT22;2582;48.770;9.190;2024-03-22T01:27:28;10.50;99.90
5128;DHT22;2582;48.770;9.190;2024-03-22T01:29:53;10.50;99.90
5128;DHT22;2582;48.770;9.190;2024-03-22T01:32:19;10.40;99.90
5128;DHT22;2582;48.770;9.190;2024-03-22T01:34:45;10.40;99.90
5128;DHT22;2582;48.770;9.190;2024-03-22T01:37:10;10.40;99.90
5128;DHT22;2582;48.770;9.190;2024-03-22T01:39:36;10.30;99.90
5128;DHT22;2582;48.770;9.190;2024-03-22T01:42:01;10.40;99.90
5128;DHT22;2582;48.770;9.190;2024-03-22T01:44:28;10.40;99.90
5128;DHT22;2582;48.770;9.190;2024-03-22T01:46:54;10.40;99.90
5128;DHT22;2582;48.770;9.190;2024-03-22T01:49:21;10.30;99.90
5128;DHT22;2582;48.770;9.190;2024-03-22T01:51:46;10.10;99.90
5128;DHT22;2582;48.770;9.190;2024-03-22T01:54:12;10.00;99.90
5128;DHT22;2582;48.770;9.190;2024-03-22T01:56:39;10.00;99.90
5128;DHT22;2582;48.770;9.190;2024-03-22T01:59:05;9.90;99.90
5128;DHT22;2582;48.770;9.190;2024-03-22T02:01:32;9.90;99.90
5128;DHT22;2582;48.770;9.190;2024-03-22T02:03:58;10.00;99.90
5128;DHT22;2582;48.770;9.190;2024-03-22T02:06:23;9.90;99.90
5128;DHT22;2582;48.770;9.190;2024-03-22T02:08:49;9.80;99.90
5128;DHT22;2582;48.770;9.190;2024-03-22T02:11:15;9.80;99.90
5128;DHT22;2582;48.770;9.190;2024-03-22T02:13:40;9.80;99.90
5128;DHT22;2582;48.770;9.190;2024-03-22T02:16:08;9.80;99.90
5128;DHT22;2582;48.770;9.190;2024-03-22T02:18:34;9.80;99.90
5128;DHT22;2582;48.770;9.190;2024-03-22T02:20:59;9.80;99.90
5128;DHT22;2582;48.770;9.190;2024-03-22T02:23:35;9.80;99.90
5128;DHT22;2582;48.770;9.190;2024-03-22T02:26:02;9.70;99.90
5128;DHT22;2582;48.770;9.190;2024-03-22T02:28:28;9.70;99.90
5128;DHT22;2582;48.770;9.190;2024-03-22T02:30:54;9.80;99.90
5128;DHT22;2582;48.770;9.190;2024-03-22T02:33:19;9.70;99.90
5128;DHT22;2582;48.770;9.190;2024-03-22T02:35:48;9.80;99.90
5128;DHT22;2582;48.770;9.190;2024-03-22T02:38:15;9.70;99.90
5128;DHT22;2582;48.770;9.190;2024-03-22T02:40:40;9.70;99.90
5128;DHT22;2582;48.770;9.190;2024-03-22T02:43:06;9.70;99.90
5128;DHT22;2582;48.770;9.190;2024-03-22T02:45:32;9.70;99.90
5128;DHT22;2582;48.770;9.190;2024-03-22T02:47:57;9.70;99.90
5128;DHT22;2582;48.770;9.190;2024-03-22T02:50:23;9.70;99.90
5128;DHT22;2582;48.770;9.190;2024-03-22T02:52:49;9.60;99.90
5128;DHT22;2582;48.770;9.190;2024-03-22T02:55:15;9.60;99.90
5128;DHT22;2582;48.770;9.190;2024-03-22T02:57:40;9.60;99.90
5128;DHT22;2582;48.770;9.190;2024-03-22T03:00:06;9.60;99.90
5128;DHT22;2582;48.770;9.190;2024-03-22T03:02:32;9.50;99.90
5128;DHT22;2582;48.770;9.190;2024-03-22T03:04:57;9.50;99.90
5128;DHT22;2582;48.770;9.190;2024-03-22T03:07:26;9.50;99.90
5128;DHT22;2582;48.770;9.190;2024-03-22T03:09:53;9.50;99.90
5128;DHT22;2582;48.770;9.190;2024-03-22T03:12:18;9.50;99.90
5128;DHT22;2582;48.770;9.190;2024-03-22T03:14:44;9.60;99.90
5128;DHT22;2582;48.770;9.190;2024-03-22T03:17:09;9.60;99.90
5128;DHT22;2582;48.770;9.190;2024-03-22T03:19:36;9.70;99.90
5128;DHT22;2582;48.770;9.190;2024-03-22T03:22:01;9.80;99.90
5128;DHT22;2582;48.770;9.190;2024-03-22T03:24:27;9.80;99.90
5128;DHT22;2582;48.770;9.190;2024-03-22T03:26:52;9.80;99.90
5128;DHT22;2582;48.770;9.190;2024-03-22T03:29:18;9.80;99.90
5128;DHT22;2582;48.770;9.190;2024-03-22T03:31:43;9.90;99.90
5128;DHT22;2582;48.770;9.190;2024-03-22T03:34:09;9.80;99.90
5128;DHT22;2582;48.770;9.190;2024-03-22T03:36:34;9.90;99.90
5128;DHT22;2582;48.770;9.190;2024-03-22T03:39:00;9.80;99.90
5128;DHT22;2582;48.770;9.190;2024-03-22T03:41:25;9.80;99.90
5128;DHT22;2582;48.770;9.190;2024-03-22T03:43:51;9.80;99.90
5128;DHT22;2582;48.770;9.190;2024-03-22T03:46:16;9.80;99.90
5128;DHT22;2582;48.770;9.190;2024-03-22T03:48:42;9.90;99.90
5128;DHT22;2582;48.770;9.190;2024-03-22T03:51:08;9.90;99.90
5128;DHT22;2582;48.770;9.190;2024-03-22T03:53:33;9.80;99.90
5128;DHT22;2582;48.770;9.190;2024-03-22T03:55:59;9.80;99.90
5128;DHT22;2582;48.770;9.190;2024-03-22T03:58:24;9.80;99.90
5128;DHT22;2582;48.770;9.190;2024-03-22T04:00:50;9.80;99.90
5128;DHT22;2582;48.770;9.190;2024-03-22T04:03:16;9.70;99.90
5128;DHT22;2582;48.770;9.190;2024-03-22T04:05:41;9.70;99.90
5128;DHT22;2582;48.770;9.190;2024-03-22T04:08:07;9.70;99.90
5128;DHT22;2582;48.770;9.190;2024-03-22T04:10:32;9.80;99.90
5128;DHT22;2582;48.770;9.190;2024-03-22T04:12:58;9.90;99.90
5128;DHT22;2582;48.770;9.190;2024-03-22T04:15:23;10.00;99.90
5128;DHT22;2582;48.770;9.190;2024-03-22T04:17:49;10.10;99.90
5128;DHT22;2582;48.770;9.190;2024-03-22T04:20:15;10.10;99.90
5128;DHT22;2582;48.770;9.190;2024-03-22T04:22:40;10.10;99.90
5128;DHT22;2582;48.770;9.190;2024-03-22T04:25:06;10.10;99.90
5128;DHT22;2582;48.770;9.190;2024-03-22T04:27:32;10.10;99.90
5128;DHT22;2582;48.770;9.190;2024-03-22T04:29:57;10.20;99.90
5128;DHT22;2582;48.770;9.190;2024-03-22T04:32:23;10.10;99.90
5128;DHT22;2582;48.770;9.190;2024-03-22T04:34:49;10.10;99.90
5128;DHT22;2582;48.770;9.190;2024-03-22T04:37:14;9.90;99.90
5128;DHT22;2582;48.770;9.190;2024-03-22T04:39:40;10.00;99.90
5128;DHT22;2582;48.770;9.190;2024-03-22T04:42:06;10.10;99.90
5128;DHT22;2582;48.770;9.190;2024-03-22T04:44:32;10.20;99.90
5128;DHT22;2582;48.770;9.190;2024-03-22T04:46:57;10.20;99.90
5128;DHT22;2582;48.770;9.190;2024-03-22T04:49:23;10.40;99.90
5128;DHT22;2582;48.770;9.190;2024-03-22T04:51:49;10.50;99.90
5128;DHT22;2582;48.770;9.190;2024-03-22T04:54:14;10.60;99.90
5128;DHT22;2582;48.770;9.190;2024-03-22T04:56:40;10.60;99.90
5128;DHT22;2582;48.770;9.190;2024-03-22T04:59:05;10.60;99.90
5128;DHT22;2582;48.770;9.190;2024-03-22T05:01:31;10.60;99.90
5128;DHT22;2582;48.770;9.190;2024-03-22T05:03:57;10.70;99.90
5128;DHT22;2582;48.770;9.190;2024-03-22T05:06:22;10.70;99.90
5128;DHT22;2582;48.770;9.190;2024-03-22T05:08:48;10.70;99.90
5128;DHT22;2582;48.770;9.190;2024-03-22T05:11:13;10.70;99.90
5128;DHT22;2582;48.770;9.190;2024-03-22T05:13:40;10.70;99.90
5128;DHT22;2582;48.770;9.190;2024-03-22T05:16:06;10.80;99.90
5128;DHT22;2582;48.770;9.190;2024-03-22T05:18:32;10.80;99.90
5128;DHT22;2582;48.770;9.190;2024-03-22T05:20:58;10.80;99.90
5128;DHT22;2582;48.770;9.190;2024-03-22T05:23:23;10.80;99.90
5128;DHT22;2582;48.770;9.190;2024-03-22T05:25:49;10.80;99.90
5128;DHT22;2582;48.770;9.190;2024-03-22T05:28:14;10.80;99.90
5128;DHT22;2582;48.770;9.190;2024-03-22T05:30:40;10.70;99.90
5128;DHT22;2582;48.770;9.190;2024-03-22T05:33:05;10.60;99.90
5128;DHT22;2582;48.770;9.190;2024-03-22T05:35:31;10.60;99.90
5128;DHT22;2582;48.770;9.190;2024-03-22T05:37:57;10.70;99.90
5128;DHT22;2582;48.770;9.190;2024-03-22T05:40:22;10.70;99.90
5128;DHT22;2582;48.770;9.190;2024-03-22T05:42:48;10.70;99.90
5128;DHT22;2582;48.770;9.190;2024-03-22T05:45:14;10.80;99.90
5128;DHT22;2582;48.770;9.190;2024-03-22T05:47:39;10.90;99.90
5128;DHT22;2582;48.770;9.190;2024-03-22T05:50:05;11.00;99.90
5128;DHT22;2582;48.770;9.190;2024-03-22T05:52:34;11.00;99.90
5128;DHT22;2582;48.770;9.190;2024-03-22T05:55:00;11.10;99.90
5128;DHT22;2582;48.770;9.190;2024-03-22T05:57:25;11.20;99.90
5128;DHT22;2582;48.770;9.190;2024-03-22T05:59:51;11.20;99.90
5128;DHT22;2582;48.770;9.190;2024-03-22T06:02:18;11.30;99.90
5128;DHT22;2582;48.770;9.190;2024-03-22T06:04:44;11.30;99.90
5128;DHT22;2582;48.770;9.190;2024-03-22T06:07:10;11.30;99.90
5128;DHT22;2582;48.770;9.190;2024-03-22T06:09:36;11.30;99.90
5128;DHT22;2582;48.770;9.190;2024-03-22T06:12:11;11.30;99.90
5128;DHT22;2582;48.770;9.190;2024-03-22T06:14:37;11.20;99.90
5128;DHT22;2582;48.770;9.190;2024-03-22T06:17:06;11.20;99.90
5128;DHT22;2582;48.770;9.190;2024-03-22T06:19:31;11.30;99.90
5128;DHT22;2582;48.770;9.190;2024-03-22T06:21:57;11.30;99.90
5128;DHT22;2582;48.770;9.190;2024-03-22T06:24:22;11.40;99.90
5128;DHT22;2582;48.770;9.190;2024-03-22T06:26:48;11.40;99.90
5128;DHT22;2582;48.770;9.190;2024-03-22T06:29:15;11.40;99.90
5128;DHT22;2582;48.770;9.190;2024-03-22T06:31:42;11.40;99.90
5128;DHT22;2582;48.770;9.190;2024-03-22T06:34:08;11.40;99.90
5128;DHT22;2582;48.770;9.190;2024-03-22T06:36:33;11.40;99.90
5128;DHT22;2582;48.770;9.190;2024-03-22T06:38:59;11.20;99.90
5128;DHT22;2582;48.770;9.190;2024-03-22T06:41:25;11.20;99.90
5128;DHT22;2582;48.770;9.190;2024-03-22T06:43:51;11.30;99.90
5128;DHT22;2582;48.770;9.190;2024-03-22T06:46:17;11.40;99.90
5128;DHT22;2582;48.770;9.190;2024-03-22T06:48:43;11.50;99.90
5128;DHT22;2582;48.770;9.190;2024-03-22T06:51:09;11.60;99.90
5128;DHT22;2582;48.770;9.190;2024-03-22T06:53:34;11.80;99.90
5128;DHT22;2582;48.770;9.190;2024-03-22T06:56:00;11.90;99.90
5128;DHT22;2582;48.770;9.190;2024-03-22T06:58:25;11.90;99.90
5128;DHT22;2582;48.770;9.190;2024-03-22T07:00:51;12.00;99.90
5128;DHT22;2582;48.770;9.190;2024-03-22T07:03:16;12.10;99.90
5128;DHT22;2582;48.770;9.190;2024-03-22T07:05:43;12.10;99.90
5128;DHT22;2582;48.770;9.190;2024-03-22T07:08:09;12.30;99.90
5128;DHT22;2582;48.770;9.190;2024-03-22T07:10:38;12.40;99.90
5128;DHT22;2582;48.770;9.190;2024-03-22T07:13:05;12.60;99.90
5128;DHT22;2582;48.770;9.190;2024-03-22T07:15:30;12.70;99.90
5128;DHT22;2582;48.770;9.190;2024-03-22T07:17:57;12.80;99.90
5128;DHT22;2582;48.770;9.190;2024-03-22T07:20:24;13.00;99.90
5128;DHT22;2582;48.770;9.190;2024-03-22T07:22:49;13.10;99.90
5128;DHT22;2582;48.770;9.190;2024-03-22T07:25:15;13.20;99.90
5128;DHT22;2582;48.770;9.190;2024-03-22T07:27:40;13.30;99.90
5128;DHT22;2582;48.770;9.190;2024-03-22T07:30:06;13.40;99.90
5128;DHT22;2582;48.770;9.190;2024-03-22T07:32:32;13.50;99.90
5128;DHT22;2582;48.770;9.190;2024-03-22T07:34:58;13.50;99.90
5128;DHT22;2582;48.770;9.190;2024-03-22T07:37:24;13.60;99.90
5128;DHT22;2582;48.770;9.190;2024-03-22T07:39:50;13.70;99.90
5128;DHT22;2582;48.770;9.190;2024-03-22T07:42:15;13.80;99.90
5128;DHT22;2582;48.770;9.190;2024-03-22T07:44:41;13.80;99.90
5128;DHT22;2582;48.770;9.190;2024-03-22T07:47:06;13.90;99.90
5128;DHT22;2582;48.770;9.190;2024-03-22T07:49:32;13.90;99.90
5128;DHT22;2582;48.770;9.190;2024-03-22T07:51:59;13.70;99.90
5128;DHT22;2582;48.770;9.190;2024-03-22T07:54:25;13.60;99.90
5128;DHT22;2582;48.770;9.190;2024-03-22T07:56:50;13.70;99.90
5128;DHT22;2582;48.770;9.190;2024-03-22T07:59:16;13.80;99.90
5128;DHT22;2582;48.770;9.190;2024-03-22T08:01:41;14.00;99.90
5128;DHT22;2582;48.770;9.190;2024-03-22T08:04:07;14.30;99.90
5128;DHT22;2582;48.770;9.190;2024-03-22T08:06:33;14.40;99.90
5128;DHT22;2582;48.770;9.190;2024-03-22T08:08:58;14.50;99.90
5128;DHT22;2582;48.770;9.190;2024-03-22T08:11:24;14.70;99.90
5128;DHT22;2582;48.770;9.190;2024-03-22T08:13:50;14.80;99.90
5128;DHT22;2582;48.770;9.190;2024-03-22T08:16:15;14.90;99.90
5128;DHT22;2582;48.770;9.190;2024-03-22T08:18:41;14.90;99.90
5128;DHT22;2582;48.770;9.190;2024-03-22T08:21:06;14.90;99.90
5128;DHT22;2582;48.770;9.190;2024-03-22T08:23:32;15.10;99.90
5128;DHT22;2582;48.770;9.190;2024-03-22T08:25:58;15.40;99.90
5128;DHT22;2582;48.770;9.190;2024-03-22T08:28:24;15.70;99.90
5128;DHT22;2582;48.770;9.190;2024-03-22T08:30:49;15.80;99.90
5128;DHT22;2582;48.770;9.190;2024-03-22T08:33:15;16.00;99.90
5128;DHT22;2582;48.770;9.190;2024-03-22T08:35:40;16.30;99.90
5128;DHT22;2582;48.770;9.190;2024-03-22T08:38:06;16.40;99.90
5128;DHT22;2582;48.770;9.190;2024-03-22T08:40:40;16.60;99.90
5128;DHT22;2582;48.770;9.190;2024-03-22T08:43:06;16.70;99.90
5128;DHT22;2582;48.770;9.190;2024-03-22T08:45:34;17.00;99.90
5128;DHT22;2582;48.770;9.190;2024-03-22T08:48:01;17.00;99.90
5128;DHT22;2582;48.770;9.190;2024-03-22T08:50:26;16.90;99.90
5128;DHT22;2582;48.770;9.190;2024-03-22T08:52:52;17.00;99.90
5128;DHT22;2582;48.770;9.190;2024-03-22T08:55:18;16.90;99.90
5128;DHT22;2582;48.770;9.190;2024-03-22T08:57:43;17.00;99.90
5128;DHT22;2582;48.770;9.190;2024-03-22T09:00:09;17.20;99.90
5128;DHT22;2582;48.770;9.190;2024-03-22T09:02:36;17.00;99.90
5128;DHT22;2582;48.770;9.190;2024-03-22T09:05:02;16.90;99.90
5128;DHT22;2582;48.770;9.190;2024-03-22T09:07:27;16.80;99.90
5128;DHT22;2582;48.770;9.190;2024-03-22T09:09:53;16.90;99.90
5128;DHT22;2582;48.770;9.190;2024-03-22T09:12:19;16.90;99.90
5128;DHT22;2582;48.770;9.190;2024-03-22T09:14:44;17.10;99.90
5128;DHT22;2582;48.770;9.190;2024-03-22T09:17:10;17.20;99.90
5128;DHT22;2582;48.770;9.190;2024-03-22T09:19:36;17.30;99.90
5128;DHT22;2582;48.770;9.190;2024-03-22T09:22:02;17.30;99.90
5128;DHT22;2582;48.770;9.190;2024-03-22T09:24:28;17.50;99.90
5128;DHT22;2582;48.770;9.190;2024-03-22T09:26:54;17.60;99.90
5128;DHT22;2582;48.770;9.190;2024-03-22T09:29:19;17.50;99.90
5128;DHT22;2582;48.770;9.190;2024-03-22T09:31:45;17.50;99.90
5128;DHT22;2582;48.770;9.190;2024-03-22T09:34:12;17.30;99.90
5128;DHT22;2582;48.770;9.190;2024-03-22T09:36:37;17.00;99.90
5128;DHT22;2582;48.770;9.190;2024-03-22T09:39:04;17.30;99.90
5128;DHT22;2582;48.770;9.190;2024-03-22T09:41:31;17.40;99.90
5128;DHT22;2582;48.770;9.190;2024-03-22T09:43:58;17.40;99.90
5128;DHT22;2582;48.770;9.190;2024-03-22T09:46:26;17.90;99.90
5128;DHT22;2582;48.770;9.190;2024-03-22T09:48:53;17.70;99.80
5128;DHT22;2582;48.770;9.190;2024-03-22T09:51:19;17.60;98.60
5128;DHT22;2582;48.770;9.190;2024-03-22T09:53:45;17.60;97.40
5128;DHT22;2582;48.770;9.190;2024-03-22T09:56:14;17.60;97.10
5128;DHT22;2582;48.770;9.190;2024-03-22T09:58:41;17.90;97.70
5128;DHT22;2582;48.770;9.190;2024-03-22T10:01:06;18.10;96.10
5128;DHT22;2582;48.770;9.190;2024-03-22T10:03:33;18.30;95.60
5128;DHT22;2582;48.770;9.190;2024-03-22T10:05:58;18.70;95.60
5128;DHT22;2582;48.770;9.190;2024-03-22T10:08:24;18.80;95.90
5128;DHT22;2582;48.770;9.190;2024-03-22T10:10:49;19.10;93.50
5128;DHT22;2582;48.770;9.190;2024-03-22T10:13:15;19.20;93.50
5128;DHT22;2582;48.770;9.190;2024-03-22T10:15:41;19.40;93.80
5128;DHT22;2582;48.770;9.190;2024-03-22T10:18:07;19.80;92.30
5128;DHT22;2582;48.770;9.190;2024-03-22T10:20:34;20.00;91.50
5128;DHT22;2582;48.770;9.190;2024-03-22T10:22:59;20.10;90.90
5128;DHT22;2582;48.770;9.190;2024-03-22T10:25:29;20.20;90.60
5128;DHT22;2582;48.770;9.190;2024-03-22T10:27:55;20.10;90.20
5128;DHT22;2582;48.770;9.190;2024-03-22T10:30:22;19.90;90.20
5128;DHT22;2582;48.770;9.190;2024-03-22T10:32:49;19.90;90.30
5128;DHT22;2582;48.770;9.190;2024-03-22T10:35:15;19.70;90.20
5128;DHT22;2582;48.770;9.190;2024-03-22T10:37:42;20.00;90.30
5128;DHT22;2582;48.770;9.190;2024-03-22T10:40:09;20.50;90.40
5128;DHT22;2582;48.770;9.190;2024-03-22T10:42:42;20.50;88.00
5128;DHT22;2582;48.770;9.190;2024-03-22T10:45:09;20.70;88.00
5128;DHT22;2582;48.770;9.190;2024-03-22T10:47:36;20.90;87.70
5128;DHT22;2582;48.770;9.190;2024-03-22T10:50:09;20.50;88.30
5128;DHT22;2582;48.770;9.190;2024-03-22T10:52:52;20.50;88.30
5128;DHT22;2582;48.770;9.190;2024-03-22T10:55:24;21.30;85.50
5128;DHT22;2582;48.770;9.190;2024-03-22T10:57:53;22.20;84.00
5128;DHT22;2582;48.770;9.190;2024-03-22T11:00:30;22.70;82.10
5128;DHT22;2582;48.770;9.190;2024-03-22T11:02:56;22.90;81.10
5128;DHT22;2582;48.770;9.190;2024-03-22T11:05:22;22.70;78.40
5128;DHT22;2582;48.770;9.190;2024-03-22T11:07:57;22.30;79.50
5128;DHT22;2582;48.770;9.190;2024-03-22T11:10:28;22.00;80.70
5128;DHT22;2582;48.770;9.190;2024-03-22T11:12:54;21.30;79.40
5128;DHT22;2582;48.770;9.190;2024-03-22T11:15:20;21.20;79.80
5128;DHT22;2582;48.770;9.190;2024-03-22T11:17:46;21.40;80.40
5128;DHT22;2582;48.770;9.190;2024-03-22T11:20:12;22.50;79.00
5128;DHT22;2582;48.770;9.190;2024-03-22T11:22:38;23.10;77.40
5128;DHT22;2582;48.770;9.190;2024-03-22T11:25:04;22.80;76.70
5128;DHT22;2582;48.770;9.190;2024-03-22T11:27:29;23.00;77.30
5128;DHT22;2582;48.770;9.190;2024-03-22T11:29:55;23.20;77.20
5128;DHT22;2582;48.770;9.190;2024-03-22T11:32:20;24.20;74.40
5128;DHT22;2582;48.770;9.190;2024-03-22T11:34:46;23.60;73.80
5128;DHT22;2582;48.770;9.190;2024-03-22T11:37:12;23.80;75.30
5128;DHT22;2582;48.770;9.190;2024-03-22T11:39:38;24.70;72.30
5128;DHT22;2582;48.770;9.190;2024-03-22T11:42:05;24.40;71.00
5128;DHT22;2582;48.770;9.190;2024-03-22T11:44:32;25.20;69.10
5128;DHT22;2582;48.770;9.190;2024-03-22T11:46:59;26.40;65.60
5128;DHT22;2582;48.770;9.190;2024-03-22T11:49:25;27.60;60.80
5128;DHT22;2582;48.770;9.190;2024-03-22T11:51:52;28.10;57.60
5128;DHT22;2582;48.770;9.190;2024-03-22T11:54:20;28.80;55.80
5128;DHT22;2582;48.770;9.190;2024-03-22T11:56:46;28.20;55.40
5128;DHT22;2582;48.770;9.190;2024-03-22T11:59:11;27.80;57.50
5128;DHT22;2582;48.770;9.190;2024-03-22T12:01:37;26.60;62.60
5128;DHT22;2582;48.770;9.190;2024-03-22T12:04:03;25.80;63.20
5128;DHT22;2582;48.770;9.190;2024-03-22T12:06:29;24.30;66.50
5128;DHT22;2582;48.770;9.190;2024-03-22T12:08:55;24.10;67.50
5128;DHT22;2582;48.770;9.190;2024-03-22T12:11:20;23.80;68.00
5128;DHT22;2582;48.770;9.190;2024-03-22T12:13:46;23.10;68.90
5128;DHT22;2582;48.770;9.190;2024-03-22T12:16:12;22.80;69.90
5128;DHT22;2582;48.770;9.190;2024-03-22T12:18:37;23.00;72.10
5128;DHT22;2582;48.770;9.190;2024-03-22T12:21:03;23.20;71.20
5128;DHT22;2582;48.770;9.190;2024-03-22T12:23:29;24.10;69.30
5128;DHT22;2582;48.770;9.190;2024-03-22T12:25:54;24.80;68.50
5128;DHT22;2582;48.770;9.190;2024-03-22T12:28:21;24.90;66.80
5128;DHT22;2582;48.770;9.190;2024-03-22T12:30:50;24.50;66.60
5128;DHT22;2582;48.770;9.190;2024-03-22T12:33:16;24.00;67.30
5128;DHT22;2582;48.770;9.190;2024-03-22T12:35:41;23.80;67.00
5128;DHT22;2582;48.770;9.190;2024-03-22T12:38:07;23.10;69.30
5128;DHT22;2582;48.770;9.190;2024-03-22T12:40:39;23.10;65.30
5128;DHT22;2582;48.770;9.190;2024-03-22T12:43:05;22.80;63.30
5128;DHT22;2582;48.770;9.190;2024-03-22T12:45:31;23.10;66.40
5128;DHT22;2582;48.770;9.190;2024-03-22T12:47:58;22.60;63.60
5128;DHT22;2582;48.770;9.190;2024-03-22T12:50:24;23.00;63.50
5128;DHT22;2582;48.770;9.190;2024-03-22T12:52:49;23.50;62.20
5128;DHT22;2582;48.770;9.190;2024-03-22T12:55:15;23.90;61.90
5128;DHT22;2582;48.770;9.190;2024-03-22T12:57:41;24.60;59.30
5128;DHT22;2582;48.770;9.190;2024-03-22T13:00:07;25.50;59.00
5128;DHT22;2582;48.770;9.190;2024-03-22T13:02:40;25.40;57.70
5128;DHT22;2582;48.770;9.190;2024-03-22T13:05:07;25.60;57.50
5128;DHT22;2582;48.770;9.190;2024-03-22T13:07:34;25.00;57.50
5128;DHT22;2582;48.770;9.190;2024-03-22T13:09:59;24.60;60.20
5128;DHT22;2582;48.770;9.190;2024-03-22T13:12:28;24.70;61.40
5128;DHT22;2582;48.770;9.190;2024-03-22T13:14:56;25.20;59.70
5128;DHT22;2582;48.770;9.190;2024-03-22T13:17:22;24.40;59.80
5128;DHT22;2582;48.770;9.190;2024-03-22T13:19:47;23.80;60.50
5128;DHT22;2582;48.770;9.190;2024-03-22T13:22:13;23.60;61.00
5128;DHT22;2582;48.770;9.190;2024-03-22T13:24:40;23.10;62.10
5128;DHT22;2582;48.770;9.190;2024-03-22T13:27:05;23.70;62.80
5128;DHT22;2582;48.770;9.190;2024-03-22T13:29:31;24.30;61.50
5128;DHT22;2582;48.770;9.190;2024-03-22T13:31:57;24.60;61.40
5128;DHT22;2582;48.770;9.190;2024-03-22T13:34:22;24.60;61.40
5128;DHT22;2582;48.770;9.190;2024-03-22T13:36:48;24.90;63.50
5128;DHT22;2582;48.770;9.190;2024-03-22T13:39:13;25.00;62.10
5128;DHT22;2582;48.770;9.190;2024-03-22T13:41:41;25.00;64.10
5128;DHT22;2582;48.770;9.190;2024-03-22T13:44:07;25.20;65.50
5128;DHT22;2582;48.770;9.190;2024-03-22T13:46:33;25.10;61.80
5128;DHT22;2582;48.770;9.190;2024-03-22T13:49:03;24.90;61.80
5128;DHT22;2582;48.770;9.190;2024-03-22T13:51:29;24.80;60.90
5128;DHT22;2582;48.770;9.190;2024-03-22T13:53:56;25.10;61.70
5128;DHT22;2582;48.770;9.190;2024-03-22T13:56:22;25.00;62.50
5128;DHT22;2582;48.770;9.190;2024-03-22T13:58:48;25.10;60.20
5128;DHT22;2582;48.770;9.190;2024-03-22T14:01:14;25.20;61.40
5128;DHT22;2582;48.770;9.190;2024-03-22T14:03:40;24.70;60.40
5128;DHT22;2582;48.770;9.190;2024-03-22T14:06:05;23.70;63.10
5128;DHT22;2582;48.770;9.190;2024-03-22T14:08:31;22.80;66.00
5128;DHT22;2582;48.770;9.190;2024-03-22T14:10:57;22.50;67.40
5128;DHT22;2582;48.770;9.190;2024-03-22T14:13:22;22.10;68.50
5128;DHT22;2582;48.770;9.190;2024-03-22T14:15:48;22.00;69.50
5128;DHT22;2582;48.770;9.190;2024-03-22T14:18:13;22.40;68.70
5128;DHT22;2582;48.770;9.190;2024-03-22T14:20:39;22.50;69.30
5128;DHT22;2582;48.770;9.190;2024-03-22T14:23:04;22.50;70.10
5128;DHT22;2582;48.770;9.190;2024-03-22T14:25:32;22.10;70.20
5128;DHT22;2582;48.770;9.190;2024-03-22T14:27:57;21.60;72.40
5128;DHT22;2582;48.770;9.190;2024-03-22T14:30:23;21.10;73.30
5128;DHT22;2582;48.770;9.190;2024-03-22T14:32:50;20.60;74.10
5128;DHT22;2582;48.770;9.190;2024-03-22T14:35:17;20.40;75.20
5128;DHT22;2582;48.770;9.190;2024-03-22T14:37:43;20.30;74.90
5128;DHT22;2582;48.770;9.190;2024-03-22T14:40:09;20.20;74.90
5128;DHT22;2582;48.770;9.190;2024-03-22T14:42:37;20.30;74.50
5128;DHT22;2582;48.770;9.190;2024-03-22T14:45:02;20.40;73.60
5128;DHT22;2582;48.770;9.190;2024-03-22T14:47:29;20.30;74.20
5128;DHT22;2582;48.770;9.190;2024-03-22T14:49:54;20.40;72.80
5128;DHT22;2582;48.770;9.190;2024-03-22T14:52:20;20.40;71.90
5128;DHT22;2582;48.770;9.190;2024-03-22T14:54:47;20.40;71.40
5128;DHT22;2582;48.770;9.190;2024-03-22T14:57:12;20.10;71.00
5128;DHT22;2582;48.770;9.190;2024-03-22T14:59:38;20.10;68.70
5128;DHT22;2582;48.770;9.190;2024-03-22T15:02:03;20.10;68.40
5128;DHT22;2582;48.770;9.190;2024-03-22T15:04:29;20.50;67.80
5128;DHT22;2582;48.770;9.190;2024-03-22T15:06:55;20.40;68.90
5128;DHT22;2582;48.770;9.190;2024-03-22T15:09:20;20.30;67.60
5128;DHT22;2582;48.770;9.190;2024-03-22T15:11:46;20.50;67.90
5128;DHT22;2582;48.770;9.190;2024-03-22T15:14:15;20.50;67.20
5128;DHT22;2582;48.770;9.190;2024-03-22T15:16:41;20.30;67.40
5128;DHT22;2582;48.770;9.190;2024-03-22T15:19:10;20.30;68.20
5128;DHT22;2582;48.770;9.190;2024-03-22T15:21:37;20.30;68.10
5128;DHT22;2582;48.770;9.190;2024-03-22T15:24:03;20.10;68.20
5128;DHT22;2582;48.770;9.190;2024-03-22T15:26:29;20.20;68.10
5128;DHT22;2582;48.770;9.190;2024-03-22T15:28:54;19.90;68.20
5128;DHT22;2582;48.770;9.190;2024-03-22T15:31:20;19.70;68.60
5128;DHT22;2582;48.770;9.190;2024-03-22T15:33:46;19.80;68.20
5128;DHT22;2582;48.770;9.190;2024-03-22T15:36:11;19.80;68.50
5128;DHT22;2582;48.770;9.190;2024-03-22T15:38:37;20.10;67.50
5128;DHT22;2582;48.770;9.190;2024-03-22T15:41:02;20.20;67.60
5128;DHT22;2582;48.770;9.190;2024-03-22T15:43:28;20.40;69.80
5128;DHT22;2582;48.770;9.190;2024-03-22T15:45:54;20.60;67.30
5128;DHT22;2582;48.770;9.190;2024-03-22T15:48:20;20.50;68.00
5128;DHT22;2582;48.770;9.190;2024-03-22T15:50:47;20.50;67.50
5128;DHT22;2582;48.770;9.190;2024-03-22T15:53:13;20.10;67.30
5128;DHT22;2582;48.770;9.190;2024-03-22T15:55:38;19.50;69.10
5128;DHT22;2582;48.770;9.190;2024-03-22T15:58:04;19.80;71.00